createdAt,value
2018-09-28T00:01:00.976Z,634
2018-09-28T00:02:07.907Z,634
2018-09-28T00:03:15.115Z,635
2018-09-28T00:04:22.041Z,635
2018-09-28T00:05:29.243Z,635
2018-09-28T00:06:36.446Z,634
2018-09-28T00:07:43.659Z,633
2018-09-28T00:08:50.861Z,632
2018-09-28T00:09:58.070Z,633
2018-09-28T00:11:05.282Z,633
2018-09-28T00:12:12.485Z,633
2018-09-28T00:13:19.692Z,633
2018-09-28T00:14:26.907Z,634
2018-09-28T00:15:34.104Z,633
2018-09-28T00:16:41.302Z,634
2018-09-28T00:17:48.263Z,634
2018-09-28T00:18:55.465Z,635
2018-09-28T00:20:02.671Z,635
2018-09-28T00:21:09.876Z,633
2018-09-28T00:22:17.092Z,634
2018-09-28T00:23:24.291Z,635
2018-09-28T00:24:31.496Z,634
2018-09-28T00:25:38.698Z,634
2018-09-28T00:26:45.903Z,635
2018-09-28T00:27:53.142Z,634
2018-09-28T00:29:00.072Z,635
2018-09-28T00:30:07.266Z,634
2018-09-28T00:31:14.472Z,634
2018-09-28T00:32:21.675Z,634
2018-09-28T00:33:28.881Z,635
2018-09-28T00:34:36.084Z,635
2018-09-28T00:35:43.171Z,635
2018-09-28T00:36:50.418Z,633
2018-09-28T00:37:57.621Z,634
2018-09-28T00:39:04.832Z,634
2018-09-28T00:40:12.045Z,635
2018-09-28T00:41:19.249Z,634
2018-09-28T00:42:26.454Z,634
2018-09-28T00:43:33.656Z,635
2018-09-28T00:44:40.870Z,635
2018-09-28T00:45:48.065Z,635
2018-09-28T00:46:55.266Z,636
2018-09-28T00:48:02.469Z,635
2018-09-28T00:49:09.665Z,635
2018-09-28T00:50:16.331Z,635
2018-09-28T00:51:23.537Z,635
2018-09-28T00:52:30.741Z,636
2018-09-28T00:53:37.944Z,634
2018-09-28T00:54:45.145Z,635
2018-09-28T00:55:52.344Z,635
2018-09-28T00:56:59.543Z,634
2018-09-28T00:58:06.747Z,634
2018-09-28T00:59:13.984Z,634
2018-09-28T01:00:21.193Z,634
2018-09-28T01:01:28.395Z,635
2018-09-28T01:02:35.598Z,635
2018-09-28T01:03:42.528Z,635
2018-09-28T01:04:49.735Z,635
2018-09-28T01:05:56.934Z,636
2018-09-28T01:07:04.137Z,635
2018-09-28T01:08:11.069Z,635
2018-09-28T01:09:18.270Z,635
2018-09-28T01:10:25.477Z,633
2018-09-28T01:11:32.686Z,633
2018-09-28T01:12:39.890Z,632
2018-09-28T01:13:47.093Z,633
2018-09-28T01:14:54.295Z,633
2018-09-28T01:16:01.513Z,633
2018-09-28T01:17:08.700Z,633
2018-09-28T01:18:15.900Z,634
2018-09-28T01:19:23.113Z,633
2018-09-28T01:20:30.317Z,634
2018-09-28T01:21:37.515Z,634
2018-09-28T01:22:59.366Z,634
2018-09-28T01:24:06.265Z,634
2018-09-28T01:25:13.469Z,633
2018-09-28T01:26:20.670Z,634
2018-09-28T01:27:27.870Z,634
2018-09-28T01:28:34.813Z,633
2018-09-28T01:29:42.016Z,634
2018-09-28T01:30:49.213Z,634
2018-09-28T01:31:56.137Z,633
2018-09-28T01:33:03.345Z,633
2018-09-28T01:34:10.276Z,634
2018-09-28T01:35:17.485Z,634
2018-09-28T01:36:24.693Z,634
2018-09-28T01:37:31.621Z,631
2018-09-28T01:38:38.561Z,632
2018-09-28T01:39:45.759Z,631
2018-09-28T01:40:52.962Z,631
2018-09-28T01:42:00.161Z,632
2018-09-28T01:43:07.363Z,631
2018-09-28T01:44:14.570Z,630
2018-09-28T01:45:21.774Z,631
2018-09-28T01:46:28.977Z,631
2018-09-28T01:47:36.176Z,630
2018-09-28T01:48:43.111Z,631
2018-09-28T01:49:50.307Z,631
2018-09-28T01:50:57.240Z,632
2018-09-28T01:52:04.445Z,631
2018-09-28T01:53:11.650Z,631
2018-09-28T01:54:18.852Z,632
2018-09-28T01:55:26.056Z,632
2018-09-28T01:56:33.266Z,632
2018-09-28T01:57:40.475Z,633
2018-09-28T01:58:47.679Z,632
2018-09-28T01:59:54.613Z,633
2018-09-28T02:01:01.822Z,631
2018-09-28T02:02:08.746Z,633
2018-09-28T02:03:15.680Z,633
2018-09-28T02:04:22.884Z,633
2018-09-28T02:05:30.085Z,633
2018-09-28T02:06:37.289Z,632
2018-09-28T02:07:44.495Z,632
2018-09-28T02:08:51.701Z,632
2018-09-28T02:09:58.907Z,632
2018-09-28T02:11:06.108Z,633
2018-09-28T02:12:13.313Z,632
2018-09-28T02:13:20.517Z,632
2018-09-28T02:14:27.720Z,633
2018-09-28T02:15:34.685Z,633
2018-09-28T02:16:41.886Z,633
2018-09-28T02:17:49.097Z,632
2018-09-28T02:18:56.305Z,632
2018-09-28T02:20:03.508Z,633
2018-09-28T02:21:10.714Z,633
2018-09-28T02:22:17.643Z,633
2018-09-28T02:23:24.868Z,632
2018-09-28T02:24:32.051Z,633
2018-09-28T02:25:39.253Z,633
2018-09-28T02:26:46.454Z,634
2018-09-28T02:27:53.657Z,634
2018-09-28T02:29:00.863Z,634
2018-09-28T02:30:08.076Z,633
2018-09-28T02:31:15.281Z,633
2018-09-28T02:32:22.478Z,634
2018-09-28T02:33:29.682Z,634
2018-09-28T02:34:36.880Z,634
2018-09-28T02:35:44.087Z,633
2018-09-28T02:36:51.300Z,633
2018-09-28T02:37:58.516Z,633
2018-09-28T02:39:05.716Z,634
2018-09-28T02:40:12.916Z,634
2018-09-28T02:41:20.129Z,634
2018-09-28T02:42:27.332Z,634
2018-09-28T02:43:34.534Z,635
2018-09-28T02:44:41.777Z,634
2018-09-28T02:45:48.976Z,634
2018-09-28T02:46:56.175Z,634
2018-09-28T02:48:03.374Z,632
2018-09-28T02:49:10.582Z,634
2018-09-28T02:50:17.780Z,633
2018-09-28T02:51:24.713Z,634
2018-09-28T02:52:31.916Z,635
2018-09-28T02:53:39.114Z,634
2018-09-28T02:54:46.316Z,635
2018-09-28T02:55:53.517Z,636
2018-09-28T02:57:01.088Z,635
2018-09-28T02:58:08.488Z,635
2018-09-28T02:59:15.689Z,634
2018-09-28T03:00:22.920Z,635
2018-09-28T03:01:30.126Z,636
2018-09-28T03:02:37.327Z,635
2018-09-28T03:03:44.527Z,636
2018-09-28T03:04:51.724Z,637
2018-09-28T03:05:58.926Z,637
2018-09-28T03:07:06.132Z,638
2018-09-28T03:08:13.333Z,638
2018-09-28T03:09:20.536Z,638
2018-09-28T03:10:27.740Z,640
2018-09-28T03:11:34.956Z,640
2018-09-28T03:12:41.887Z,641
2018-09-28T03:13:48.807Z,642
2018-09-28T03:14:56.014Z,641
2018-09-28T03:16:03.226Z,642
2018-09-28T03:17:10.428Z,643
2018-09-28T03:18:17.635Z,645
2018-09-28T03:19:24.834Z,644
2018-09-28T03:20:32.034Z,645
2018-09-28T03:21:39.240Z,646
2018-09-28T03:22:46.477Z,646
2018-09-28T03:23:53.682Z,647
2018-09-28T03:25:00.611Z,647
2018-09-28T03:26:07.815Z,647
2018-09-28T03:27:15.016Z,648
2018-09-28T03:28:22.213Z,649
2018-09-28T03:29:29.416Z,649
2018-09-28T03:30:36.628Z,650
2018-09-28T03:31:43.828Z,651
2018-09-28T03:32:51.028Z,652
2018-09-28T03:33:58.228Z,652
2018-09-28T03:35:05.428Z,652
2018-09-28T03:36:12.354Z,652
2018-09-28T03:37:19.559Z,653
2018-09-28T03:38:26.756Z,654
2018-09-28T03:39:33.685Z,654
2018-09-28T03:40:41.217Z,654
2018-09-28T03:41:48.250Z,654
2018-09-28T03:42:55.456Z,654
2018-09-28T03:44:02.661Z,654
2018-09-28T03:45:09.912Z,654
2018-09-28T03:46:17.111Z,654
2018-09-28T03:47:24.046Z,653
2018-09-28T03:48:30.973Z,653
2018-09-28T03:49:37.896Z,654
2018-09-28T03:50:45.098Z,653
2018-09-28T03:52:06.945Z,654
2018-09-28T03:53:14.149Z,654
2018-09-28T03:54:21.365Z,654
2018-09-28T03:55:28.569Z,655
2018-09-28T03:56:35.770Z,655
2018-09-28T03:57:42.706Z,654
2018-09-28T03:58:49.915Z,654
2018-09-28T03:59:56.842Z,653
2018-09-28T04:01:04.045Z,653
2018-09-28T04:02:11.242Z,653
2018-09-28T04:03:18.464Z,653
2018-09-28T04:04:25.656Z,652
2018-09-28T04:05:32.613Z,654
2018-09-28T04:06:39.808Z,653
2018-09-28T04:07:47.013Z,653
2018-09-28T04:08:54.212Z,653
2018-09-28T04:10:01.413Z,653
2018-09-28T04:11:08.621Z,654
2018-09-28T04:12:15.539Z,652
2018-09-28T04:13:22.742Z,654
2018-09-28T04:14:29.940Z,654
2018-09-28T04:15:37.139Z,653
2018-09-28T04:16:44.338Z,653
2018-09-28T04:17:51.539Z,652
2018-09-28T04:18:58.743Z,653
2018-09-28T04:20:05.941Z,653
2018-09-28T04:21:13.141Z,653
2018-09-28T04:22:20.343Z,653
2018-09-28T04:23:27.554Z,653
2018-09-28T04:24:34.738Z,652
2018-09-28T04:25:41.941Z,653
2018-09-28T04:26:49.142Z,652
2018-09-28T04:27:56.342Z,652
2018-09-28T04:29:03.551Z,652
2018-09-28T04:30:10.753Z,651
2018-09-28T04:31:17.957Z,650
2018-09-28T04:32:25.161Z,651
2018-09-28T04:33:32.360Z,651
2018-09-28T04:34:39.570Z,651
2018-09-28T04:35:46.776Z,651
2018-09-28T04:36:53.973Z,651
2018-09-28T04:38:00.895Z,652
2018-09-28T04:39:08.098Z,651
2018-09-28T04:40:15.299Z,653
2018-09-28T04:41:22.498Z,652
2018-09-28T04:42:29.426Z,652
2018-09-28T04:43:36.631Z,653
2018-09-28T04:44:43.839Z,654
2018-09-28T04:45:51.045Z,655
2018-09-28T04:46:58.255Z,656
2018-09-28T04:48:05.183Z,656
2018-09-28T04:49:12.383Z,657
2018-09-28T04:50:19.593Z,658
2018-09-28T04:51:26.796Z,659
2018-09-28T04:52:34.001Z,661
2018-09-28T04:53:41.413Z,661
2018-09-28T04:54:48.612Z,662
2018-09-28T04:55:55.815Z,663
2018-09-28T04:57:03.037Z,662
2018-09-28T04:58:10.238Z,663
2018-09-28T04:59:17.441Z,665
2018-09-28T05:00:24.644Z,667
2018-09-28T05:01:31.848Z,665
2018-09-28T05:02:39.054Z,668
2018-09-28T05:03:46.254Z,669
2018-09-28T05:04:53.466Z,668
2018-09-28T05:06:00.126Z,670
2018-09-28T05:07:07.324Z,671
2018-09-28T05:08:14.527Z,671
2018-09-28T05:09:21.731Z,672
2018-09-28T05:10:28.937Z,673
2018-09-28T05:12:49.123Z,673
2018-09-28T05:13:56.333Z,674
2018-09-28T05:15:03.526Z,674
2018-09-28T05:16:10.727Z,674
2018-09-28T05:17:17.926Z,674
2018-09-28T05:18:25.129Z,675
2018-09-28T05:19:32.563Z,676
2018-09-28T05:20:39.806Z,678
2018-09-28T05:21:46.729Z,677
2018-09-28T05:22:53.929Z,677
2018-09-28T05:24:01.131Z,677
2018-09-28T05:25:08.406Z,678
2018-09-28T05:26:15.649Z,678
2018-09-28T05:27:22.578Z,678
2018-09-28T05:28:29.780Z,679
2018-09-28T05:29:36.983Z,680
2018-09-28T05:30:54.825Z,679
2018-09-28T05:32:02.266Z,680
2018-09-28T05:33:09.570Z,680
2018-09-28T05:34:16.777Z,682
2018-09-28T05:35:23.988Z,683
2018-09-28T05:36:31.192Z,683
2018-09-28T05:37:38.396Z,683
2018-09-28T05:38:45.604Z,683
2018-09-28T05:39:52.810Z,683
2018-09-28T05:40:59.736Z,683
2018-09-28T05:42:06.939Z,684
2018-09-28T05:43:14.146Z,684
2018-09-28T05:44:21.356Z,683
2018-09-28T05:45:28.561Z,683
2018-09-28T05:46:35.764Z,683
2018-09-28T05:47:42.963Z,683
2018-09-28T05:48:50.170Z,683
2018-09-28T05:49:57.368Z,684
2018-09-28T05:51:04.575Z,684
2018-09-28T05:52:11.778Z,684
2018-09-28T05:53:18.984Z,683
2018-09-28T05:54:26.186Z,684
2018-09-28T05:55:33.394Z,684
2018-09-28T05:56:40.595Z,684
2018-09-28T05:57:47.809Z,684
2018-09-28T05:58:55.012Z,683
2018-09-28T06:00:02.225Z,683
2018-09-28T06:01:09.429Z,683
2018-09-28T06:02:16.630Z,682
2018-09-28T06:03:23.834Z,681
2018-09-28T06:04:31.042Z,683
2018-09-28T06:05:38.746Z,682
2018-09-28T06:06:46.272Z,683
2018-09-28T06:07:53.217Z,682
2018-09-28T06:09:00.433Z,682
2018-09-28T06:10:07.353Z,681
2018-09-28T06:11:14.555Z,683
2018-09-28T06:12:21.753Z,683
2018-09-28T06:13:28.974Z,683
2018-09-28T06:14:35.899Z,682
2018-09-28T06:15:43.101Z,681
2018-09-28T06:16:50.034Z,681
2018-09-28T06:17:57.196Z,681
2018-09-28T06:19:04.279Z,680
2018-09-28T06:20:11.493Z,680
2018-09-28T06:21:18.431Z,681
2018-09-28T06:22:25.634Z,679
2018-09-28T06:23:32.830Z,678
2018-09-28T06:24:40.073Z,678
2018-09-28T06:25:47.388Z,675
2018-09-28T06:26:54.629Z,673
2018-09-28T06:28:01.298Z,671
2018-09-28T06:29:08.228Z,671
2018-09-28T06:30:15.574Z,668
2018-09-28T06:31:22.820Z,664
2018-09-28T06:32:30.027Z,661
2018-09-28T06:33:37.234Z,659
2018-09-28T06:34:44.432Z,658
2018-09-28T06:35:51.761Z,657
2018-09-28T06:36:58.976Z,656
2018-09-28T06:38:06.201Z,655
2018-09-28T06:39:13.426Z,654
2018-09-28T06:40:20.638Z,653
2018-09-28T06:41:27.839Z,652
2018-09-28T06:42:35.045Z,649
2018-09-28T06:43:42.251Z,649
2018-09-28T06:44:49.815Z,648
2018-09-28T06:45:57.053Z,649
2018-09-28T06:47:04.263Z,649
2018-09-28T06:48:11.701Z,648
2018-09-28T06:49:19.049Z,648
2018-09-28T06:50:26.255Z,648
2018-09-28T06:51:33.459Z,647
2018-09-28T06:52:40.670Z,649
2018-09-28T06:53:48.010Z,647
2018-09-28T06:54:55.284Z,646
2018-09-28T06:56:02.485Z,647
2018-09-28T06:57:09.688Z,647
2018-09-28T06:58:17.193Z,647
2018-09-28T06:59:24.633Z,647
2018-09-28T07:00:31.563Z,646
2018-09-28T07:01:38.770Z,647
2018-09-28T07:02:45.975Z,647
2018-09-28T07:03:53.220Z,647
2018-09-28T07:05:00.442Z,647
2018-09-28T07:06:07.768Z,646
2018-09-28T07:07:14.681Z,645
2018-09-28T07:08:21.890Z,645
2018-09-28T07:09:29.268Z,645
2018-09-28T07:10:36.527Z,646
2018-09-28T07:11:43.797Z,644
2018-09-28T07:12:51.105Z,644
2018-09-28T07:13:58.308Z,645
2018-09-28T07:15:05.512Z,644
2018-09-28T07:16:12.862Z,645
2018-09-28T07:17:20.122Z,644
2018-09-28T07:18:27.633Z,644
2018-09-28T07:19:34.838Z,643
2018-09-28T07:20:42.048Z,642
2018-09-28T07:21:49.254Z,643
2018-09-28T07:22:56.464Z,642
2018-09-28T07:24:03.579Z,643
2018-09-28T07:25:10.777Z,642
2018-09-28T07:26:18.136Z,641
2018-09-28T07:27:25.060Z,641
2018-09-28T07:28:31.997Z,641
2018-09-28T07:29:38.688Z,643
2018-09-28T07:30:45.886Z,642
2018-09-28T07:31:52.943Z,641
2018-09-28T07:32:59.877Z,641
2018-09-28T07:34:06.822Z,640
2018-09-28T07:35:13.754Z,641
2018-09-28T07:36:21.556Z,640
2018-09-28T07:37:29.066Z,640
2018-09-28T07:38:35.999Z,639
2018-09-28T07:39:42.926Z,639
2018-09-28T07:40:50.140Z,639
2018-09-28T07:41:57.800Z,639
2018-09-28T07:43:04.661Z,639
2018-09-28T07:44:11.865Z,639
2018-09-28T07:45:19.069Z,639
2018-09-28T07:46:25.732Z,639
2018-09-28T07:47:32.937Z,639
2018-09-28T07:48:40.147Z,638
2018-09-28T07:49:47.350Z,637
2018-09-28T07:50:54.591Z,637
2018-09-28T07:52:01.794Z,636
2018-09-28T07:53:09.007Z,635
2018-09-28T07:54:16.213Z,635
2018-09-28T07:55:23.422Z,635
2018-09-28T07:56:30.625Z,635
2018-09-28T07:57:37.829Z,635
2018-09-28T07:58:45.047Z,633
2018-09-28T07:59:52.256Z,633
2018-09-28T08:00:59.476Z,633
2018-09-28T08:02:06.686Z,634
2018-09-28T08:03:13.895Z,635
2018-09-28T08:04:21.103Z,635
2018-09-28T08:05:28.307Z,634
2018-09-28T08:06:35.520Z,634
2018-09-28T08:07:42.724Z,634
2018-09-28T08:08:49.940Z,635
2018-09-28T08:09:56.872Z,634
2018-09-28T08:11:04.076Z,633
2018-09-28T08:12:11.279Z,632
2018-09-28T08:13:18.492Z,631
2018-09-28T08:14:25.699Z,632
2018-09-28T08:15:32.900Z,630
2018-09-28T08:16:40.108Z,630
2018-09-28T08:17:47.462Z,629
2018-09-28T08:18:54.679Z,629
2018-09-28T08:20:01.605Z,629
2018-09-28T08:21:08.813Z,630
2018-09-28T08:22:16.026Z,629
2018-09-28T08:23:23.438Z,629
2018-09-28T08:24:30.770Z,629
2018-09-28T08:25:38.014Z,629
2018-09-28T08:26:45.220Z,628
2018-09-28T08:27:52.427Z,628
2018-09-28T08:28:59.647Z,628
2018-09-28T08:30:06.857Z,629
2018-09-28T08:31:14.068Z,630
2018-09-28T08:32:21.011Z,630
2018-09-28T08:33:28.217Z,628
2018-09-28T08:34:35.425Z,628
2018-09-28T08:35:42.632Z,627
2018-09-28T08:36:50.343Z,628
2018-09-28T08:37:57.715Z,628
2018-09-28T08:39:04.657Z,628
2018-09-28T08:40:11.864Z,626
2018-09-28T08:41:19.073Z,626
2018-09-28T08:42:26.290Z,625
2018-09-28T08:43:33.755Z,624
2018-09-28T08:44:41.011Z,623
2018-09-28T08:45:48.233Z,624
2018-09-28T08:46:55.445Z,624
2018-09-28T08:48:02.385Z,623
2018-09-28T08:49:09.745Z,625
2018-09-28T08:50:17.061Z,625
2018-09-28T08:51:23.992Z,624
2018-09-28T08:52:31.199Z,625
2018-09-28T08:53:38.141Z,624
2018-09-28T08:54:45.352Z,624
2018-09-28T08:55:52.565Z,623
2018-09-28T08:56:59.778Z,623
2018-09-28T08:58:06.722Z,624
2018-09-28T08:59:13.932Z,625
2018-09-28T09:00:21.150Z,625
2018-09-28T09:01:28.361Z,624
2018-09-28T09:02:35.578Z,622
2018-09-28T09:03:42.517Z,622
2018-09-28T09:04:49.730Z,623
2018-09-28T09:05:56.943Z,625
2018-09-28T09:07:04.147Z,624
2018-09-28T09:08:11.357Z,624
2018-09-28T09:09:18.572Z,624
2018-09-28T09:10:25.786Z,621
2018-09-28T09:11:32.997Z,619
2018-09-28T09:12:39.936Z,621
2018-09-28T09:13:47.147Z,620
2018-09-28T09:14:54.360Z,619
2018-09-28T09:16:01.573Z,618
2018-09-28T09:17:08.787Z,617
2018-09-28T09:18:15.802Z,617
2018-09-28T09:19:23.175Z,616
2018-09-28T09:20:30.136Z,616
2018-09-28T09:21:37.751Z,616
2018-09-28T09:22:44.968Z,614
2018-09-28T09:23:52.367Z,615
2018-09-28T09:24:59.648Z,614
2018-09-28T09:26:06.864Z,614
2018-09-28T09:27:13.804Z,615
2018-09-28T09:28:21.023Z,614
2018-09-28T09:29:28.230Z,614
2018-09-28T09:30:35.666Z,613
2018-09-28T09:31:42.877Z,613
2018-09-28T09:32:50.089Z,613
2018-09-28T09:33:57.302Z,614
2018-09-28T09:35:04.515Z,614
2018-09-28T09:36:11.721Z,614
2018-09-28T09:37:18.943Z,614
2018-09-28T09:38:26.156Z,614
2018-09-28T09:39:33.366Z,614
2018-09-28T09:40:40.580Z,613
2018-09-28T09:41:47.517Z,613
2018-09-28T09:42:54.724Z,613
2018-09-28T09:44:01.939Z,613
2018-09-28T09:45:09.152Z,612
2018-09-28T09:46:16.369Z,612
2018-09-28T09:47:23.040Z,612
2018-09-28T09:48:30.389Z,611
2018-09-28T09:49:37.711Z,611
2018-09-28T09:50:44.927Z,610
2018-09-28T09:51:52.138Z,610
2018-09-28T09:52:59.352Z,610
2018-09-28T09:54:06.572Z,608
2018-09-28T09:55:13.792Z,610
2018-09-28T09:56:21.008Z,610
2018-09-28T09:57:28.230Z,607
2018-09-28T09:58:35.439Z,607
2018-09-28T09:59:42.387Z,606
2018-09-28T10:00:49.596Z,606
2018-09-28T10:01:56.538Z,607
2018-09-28T10:03:03.751Z,606
2018-09-28T10:04:10.690Z,603
2018-09-28T10:05:17.913Z,600
2018-09-28T10:06:25.129Z,598
2018-09-28T10:07:32.346Z,597
2018-09-28T10:08:39.560Z,596
2018-09-28T10:09:47.082Z,595
2018-09-28T10:10:54.072Z,593
2018-09-28T10:12:01.287Z,591
2018-09-28T10:13:08.502Z,589
2018-09-28T10:14:15.716Z,590
2018-09-28T10:15:22.932Z,589
2018-09-28T10:16:30.146Z,588
2018-09-28T10:17:37.361Z,585
2018-09-28T10:18:44.303Z,590
2018-09-28T10:19:51.516Z,591
2018-09-28T10:20:58.773Z,588
2018-09-28T10:22:05.974Z,586
2018-09-28T10:23:13.185Z,586
2018-09-28T10:24:20.438Z,585
2018-09-28T10:25:27.655Z,584
2018-09-28T10:26:34.880Z,582
2018-09-28T10:27:42.283Z,580
2018-09-28T10:28:49.591Z,580
2018-09-28T10:29:56.806Z,579
2018-09-28T10:31:04.022Z,583
2018-09-28T10:32:11.240Z,584
2018-09-28T10:33:18.452Z,584
2018-09-28T10:34:26.256Z,577
2018-09-28T10:35:33.732Z,575
2018-09-28T10:36:40.942Z,573
2018-09-28T10:37:48.157Z,572
2018-09-28T10:38:55.369Z,571
2018-09-28T10:40:02.581Z,572
2018-09-28T10:41:10.015Z,570
2018-09-28T10:42:17.006Z,570
2018-09-28T10:43:24.238Z,569
2018-09-28T10:44:31.185Z,572
2018-09-28T10:45:38.484Z,580
2018-09-28T10:46:45.729Z,583
2018-09-28T10:47:53.024Z,578
2018-09-28T10:49:00.239Z,573
2018-09-28T10:50:07.453Z,572
2018-09-28T10:51:14.763Z,573
2018-09-28T10:52:23.249Z,577
2018-09-28T10:53:30.895Z,573
2018-09-28T10:54:38.112Z,576
2018-09-28T10:55:45.322Z,578
2018-09-28T10:56:52.543Z,576
2018-09-28T10:57:59.754Z,574
2018-09-28T10:59:06.965Z,578
2018-09-28T11:00:14.235Z,583
2018-09-28T11:01:21.490Z,579
2018-09-28T11:02:28.705Z,577
2018-09-28T11:03:35.985Z,577
2018-09-28T11:04:43.515Z,577
2018-09-28T11:05:50.818Z,572
2018-09-28T11:06:58.032Z,567
2018-09-28T11:08:05.455Z,563
2018-09-28T11:09:12.793Z,559
2018-09-28T11:10:20.236Z,563
2018-09-28T11:11:27.634Z,557
2018-09-28T11:12:34.850Z,556
2018-09-28T11:13:42.068Z,561
2018-09-28T11:14:49.011Z,563
2018-09-28T11:15:55.950Z,565
2018-09-28T11:17:02.925Z,565
2018-09-28T11:18:10.132Z,561
2018-09-28T11:19:17.355Z,562
2018-09-28T11:20:24.293Z,567
2018-09-28T11:21:31.570Z,562
2018-09-28T11:22:38.814Z,557
2018-09-28T11:23:46.029Z,556
2018-09-28T11:24:53.246Z,564
2018-09-28T11:26:00.475Z,566
2018-09-28T11:27:07.742Z,559
2018-09-28T11:28:14.957Z,571
2018-09-28T11:29:22.171Z,567
2018-09-28T11:30:29.389Z,579
2018-09-28T11:31:36.612Z,577
2018-09-28T11:32:43.829Z,578
2018-09-28T11:33:51.532Z,578
2018-09-28T11:34:58.872Z,584
2018-09-28T11:36:06.087Z,583
2018-09-28T11:37:13.298Z,584
2018-09-28T11:38:20.236Z,571
2018-09-28T11:39:27.777Z,568
2018-09-28T11:40:35.291Z,569
2018-09-28T11:41:42.510Z,571
2018-09-28T11:42:49.735Z,569
2018-09-28T11:43:56.959Z,573
2018-09-28T11:45:04.190Z,572
2018-09-28T11:46:11.405Z,560
2018-09-28T11:47:18.621Z,556
2018-09-28T11:48:25.840Z,547
2018-09-28T11:49:32.778Z,538
2018-09-28T11:50:39.998Z,542
2018-09-28T11:51:47.457Z,547
2018-09-28T11:52:54.785Z,554
2018-09-28T11:54:02.063Z,565
2018-09-28T11:55:09.277Z,575
2018-09-28T11:56:16.222Z,575
2018-09-28T11:57:23.747Z,566
2018-09-28T11:58:31.143Z,556
2018-09-28T11:59:38.369Z,568
2018-09-28T12:00:45.574Z,576
2018-09-28T12:01:52.789Z,580
2018-09-28T12:03:00.105Z,581
2018-09-28T12:04:07.319Z,570
2018-09-28T12:05:14.850Z,554
2018-09-28T12:06:22.178Z,557
2018-09-28T12:07:29.341Z,555
2018-09-28T12:08:36.556Z,544
2018-09-28T12:09:43.909Z,541
2018-09-28T12:10:51.386Z,550
2018-09-28T12:11:58.613Z,561
2018-09-28T12:13:05.832Z,571
2018-09-28T12:14:12.779Z,574
2018-09-28T12:15:19.865Z,576
2018-09-28T12:16:27.198Z,579
2018-09-28T12:17:34.410Z,580
2018-09-28T12:18:41.935Z,581
2018-09-28T12:19:49.228Z,580
2018-09-28T12:20:56.449Z,585
2018-09-28T12:22:03.683Z,582
2018-09-28T12:23:10.638Z,587
2018-09-28T12:24:17.987Z,588
2018-09-28T12:25:25.336Z,589
2018-09-28T12:26:32.282Z,586
2018-09-28T12:27:39.663Z,585
2018-09-28T12:28:46.639Z,586
2018-09-28T12:29:53.849Z,588
2018-09-28T12:31:01.067Z,588
2018-09-28T12:32:08.024Z,589
2018-09-28T12:33:15.429Z,591
2018-09-28T12:34:22.685Z,591
2018-09-28T12:35:29.980Z,591
2018-09-28T12:36:37.450Z,591
2018-09-28T12:37:44.730Z,593
2018-09-28T12:38:51.676Z,594
2018-09-28T12:39:59.105Z,595
2018-09-28T12:41:06.186Z,596
2018-09-28T12:42:13.589Z,597
2018-09-28T12:43:20.951Z,598
2018-09-28T12:44:28.441Z,598
2018-09-28T12:45:35.985Z,599
2018-09-28T12:46:43.296Z,598
2018-09-28T12:47:50.521Z,598
2018-09-28T12:48:57.735Z,596
2018-09-28T12:50:04.952Z,599
2018-09-28T12:51:12.240Z,601
2018-09-28T12:52:19.184Z,599
2018-09-28T12:53:26.402Z,598
2018-09-28T12:54:33.652Z,600
2018-09-28T12:55:40.882Z,599
2018-09-28T12:56:48.490Z,598
2018-09-28T12:57:55.855Z,598
2018-09-28T12:59:03.075Z,599
2018-09-28T13:00:10.390Z,599
2018-09-28T13:01:18.451Z,598
2018-09-28T13:02:25.397Z,594
2018-09-28T13:03:32.801Z,594
2018-09-28T13:04:40.022Z,593
2018-09-28T13:05:47.256Z,591
2018-09-28T13:06:54.475Z,590
2018-09-28T13:08:01.695Z,589
2018-09-28T13:09:08.648Z,585
2018-09-28T13:10:15.593Z,580
2018-09-28T13:11:22.811Z,577
2018-09-28T13:12:30.066Z,577
2018-09-28T13:13:37.302Z,578
2018-09-28T13:14:44.927Z,565
2018-09-28T13:15:52.242Z,574
2018-09-28T13:16:59.458Z,581
2018-09-28T13:18:06.706Z,584
2018-09-28T13:19:13.930Z,587
2018-09-28T13:20:21.262Z,591
2018-09-28T13:21:28.580Z,595
2018-09-28T13:22:35.802Z,598
2018-09-28T13:23:42.770Z,599
2018-09-28T13:24:50.341Z,598
2018-09-28T13:25:57.352Z,596
2018-09-28T13:27:04.571Z,596
2018-09-28T13:28:11.517Z,595
2018-09-28T13:29:18.666Z,593
2018-09-28T13:30:26.363Z,581
2018-09-28T13:31:33.816Z,573
2018-09-28T13:32:41.196Z,568
2018-09-28T13:33:48.498Z,560
2018-09-28T13:34:55.709Z,555
2018-09-28T13:36:02.926Z,545
2018-09-28T13:37:10.151Z,547
2018-09-28T13:38:17.697Z,548
2018-09-28T13:39:25.217Z,541
2018-09-28T13:40:32.444Z,540
2018-09-28T13:41:39.666Z,544
2018-09-28T13:42:47.128Z,551
2018-09-28T13:43:54.438Z,564
2018-09-28T13:45:01.895Z,574
2018-09-28T13:46:09.579Z,573
2018-09-28T13:47:17.006Z,569
2018-09-28T13:48:24.588Z,571
2018-09-28T13:49:31.995Z,580
2018-09-28T13:50:39.192Z,580
2018-09-28T13:51:46.605Z,584
2018-09-28T13:52:53.806Z,586
2018-09-28T13:54:00.782Z,586
2018-09-28T13:55:07.999Z,586
2018-09-28T13:56:15.279Z,581
2018-09-28T13:57:22.610Z,585
2018-09-28T13:58:29.874Z,589
2018-09-28T13:59:37.094Z,591
2018-09-28T14:00:44.587Z,593
2018-09-28T14:01:52.038Z,592
2018-09-28T14:02:59.260Z,592
2018-09-28T14:04:05.926Z,590
2018-09-28T14:05:13.171Z,588
2018-09-28T14:06:20.683Z,589
2018-09-28T14:07:27.976Z,589
2018-09-28T14:08:35.298Z,589
2018-09-28T14:09:42.572Z,590
2018-09-28T14:10:50.226Z,591
2018-09-28T14:11:57.389Z,590
2018-09-28T14:13:04.609Z,591
2018-09-28T14:14:11.906Z,590
2018-09-28T14:15:18.844Z,593
2018-09-28T14:16:26.416Z,593
2018-09-28T14:17:33.819Z,594
2018-09-28T14:18:41.254Z,594
2018-09-28T14:19:48.390Z,593
2018-09-28T14:20:55.617Z,595
2018-09-28T14:22:02.771Z,594
2018-09-28T14:23:09.991Z,595
2018-09-28T14:24:17.212Z,596
2018-09-28T14:25:24.590Z,599
2018-09-28T14:26:31.910Z,601
2018-09-28T14:27:39.152Z,602
2018-09-28T14:28:46.431Z,603
2018-09-28T14:29:53.743Z,603
2018-09-28T14:31:00.995Z,603
2018-09-28T14:32:08.302Z,603
2018-09-28T14:33:15.553Z,602
2018-09-28T14:34:23.007Z,601
2018-09-28T14:35:30.349Z,601
2018-09-28T14:36:37.713Z,601
2018-09-28T14:37:44.780Z,602
2018-09-28T14:38:52.023Z,602
2018-09-28T14:39:58.736Z,602
2018-09-28T14:41:05.451Z,600
2018-09-28T14:42:12.731Z,600
2018-09-28T14:43:19.938Z,601
2018-09-28T14:44:27.169Z,603
2018-09-28T14:45:34.613Z,602
2018-09-28T14:46:42.130Z,601
2018-09-28T14:47:49.509Z,601
2018-09-28T14:48:56.870Z,601
2018-09-28T14:50:04.193Z,601
2018-09-28T14:51:11.414Z,601
2018-09-28T14:52:18.846Z,603
2018-09-28T14:53:26.128Z,604
2018-09-28T14:54:33.718Z,605
2018-09-28T14:55:41.128Z,605
2018-09-28T14:56:48.750Z,606
2018-09-28T14:57:55.795Z,606
2018-09-28T14:59:03.029Z,607
2018-09-28T15:00:10.480Z,607
2018-09-28T15:01:18.371Z,608
2018-09-28T15:02:26.210Z,608
2018-09-28T15:03:33.425Z,609
2018-09-28T15:04:40.549Z,608
2018-09-28T15:05:47.937Z,609
2018-09-28T15:06:55.586Z,609
2018-09-28T15:08:03.211Z,610
2018-09-28T15:09:10.434Z,610
2018-09-28T15:10:17.886Z,609
2018-09-28T15:11:25.228Z,611
2018-09-28T15:12:32.255Z,610
2018-09-28T15:13:39.292Z,611
2018-09-28T15:14:46.744Z,611
2018-09-28T15:15:54.104Z,611
2018-09-28T15:17:01.058Z,611
2018-09-28T15:18:08.287Z,611
2018-09-28T15:19:15.273Z,612
2018-09-28T15:20:22.492Z,611
2018-09-28T15:21:29.718Z,612
2018-09-28T15:22:36.940Z,612
2018-09-28T15:23:44.164Z,611
2018-09-28T15:24:51.387Z,612
2018-09-28T15:25:58.603Z,611
2018-09-28T15:27:05.552Z,611
2018-09-28T15:28:12.497Z,612